Terminal Aerodrome Forecast
Issued by NWS

Home | Current Version | Previous Version | Text Only | Print | Product List | Glossary On
Versions: 1 2 3 4 5 6 7 8 9 10 11 12 13 14 15 16 17 18 19 20 21 22 23 24 25
000
FTUS41 KPBZ 281509 AAB
TAFZZV
TAF AMD
KZZV 281509Z 2815/2912 21008KT P6SM SCT025
     FM281800 20008KT P6SM BKN035
     FM282200 21010KT 5SM -SHRA VCTS OVC035CB
     FM290100 21008KT P6SM -SHRA OVC035
     FM290400 25008KT P6SM VCSH BKN025
     FM290800 26008KT P6SM BKN040=

USA.gov is the U.S. government's official web portal to all federal, state and local government web resources and services.